Time;durP1;ratioP1;P1;durP2;ratioP2;P2;SDS_P1;SDS_P2;PMS_P1;PMS_P2;Temp;Humidity;BMP_temperature;BMP_pressure;BME280_temperature;BME280_humidity;BME280_pressure;Samples;Min_cycle;Max_cycle;Signal;HPM_P1;HPM_P2
2022/08/18 00:01:12;;;;;;;13.18;6.10;;;20.00;99.90;;;;;;5071611;28;20447;-82
2022/08/18 00:03:46;;;;;;;13.07;6.68;;;20.00;99.90;;;;;;5080728;28;20484;-82
2022/08/18 00:06:27;;;;;;;11.05;5.78;;;20.00;99.90;;;;;;5079338;28;20955;-82
2022/08/18 00:08:58;;;;;;;11.95;6.55;;;20.00;99.90;;;;;;5089558;28;20480;-81
2022/08/18 00:11:27;;;;;;;11.23;5.90;;;20.00;99.90;;;;;;5082918;28;20484;-82
2022/08/18 00:14:14;;;;;;;11.47;6.40;;;20.00;99.90;;;;;;5077684;28;20472;-82
2022/08/18 00:16:52;;;;;;;10.15;6.28;;;20.00;99.90;;;;;;5110113;27;20485;-81
2022/08/18 00:19:22;;;;;;;13.60;7.33;;;20.00;99.90;;;;;;5080491;28;20463;-82
2022/08/18 00:22:12;;;;;;;12.38;7.75;;;19.90;99.90;;;;;;5083621;28;20823;-81
2022/08/18 00:24:43;;;;;;;11.17;6.33;;;19.90;99.90;;;;;;5099547;28;20407;-82
2022/08/18 00:27:36;;;;;;;14.15;6.07;;;20.00;99.90;;;;;;5068804;28;20458;-82
2022/08/18 00:30:09;;;;;;;10.18;6.10;;;19.90;99.90;;;;;;5075846;28;20417;-82
2022/08/18 00:32:41;;;;;;;12.55;6.60;;;19.80;99.90;;;;;;5086689;28;20823;-81
2022/08/18 00:35:21;;;;;;;13.00;6.53;;;19.80;99.90;;;;;;5082382;28;20406;-81
2022/08/18 00:37:48;;;;;;;16.08;6.65;;;19.80;99.90;;;;;;5082385;28;20429;-81
2022/08/18 00:40:20;;;;;;;11.05;6.30;;;19.80;99.90;;;;;;5081445;28;20491;-82
2022/08/18 00:42:52;;;;;;;12.63;5.88;;;19.80;99.90;;;;;;5114649;27;20401;-81
2022/08/18 00:45:24;;;;;;;15.20;6.95;;;19.80;99.90;;;;;;5082005;28;20428;-81
2022/08/18 00:47:53;;;;;;;12.70;6.15;;;19.80;99.90;;;;;;5122410;27;20862;-81
2022/08/18 00:50:27;;;;;;;8.88;6.15;;;19.80;99.90;;;;;;5074615;28;20409;-80
2022/08/18 00:53:27;;;;;;;12.15;6.15;;;19.80;99.90;;;;;;5074430;28;20793;-82
2022/08/18 00:55:58;;;;;;;17.52;6.88;;;19.80;99.90;;;;;;5051050;28;20398;-81
2022/08/18 00:58:33;;;;;;;12.82;6.40;;;19.80;99.90;;;;;;5082417;28;20435;-82
2022/08/18 01:01:05;;;;;;;11.73;7.55;;;19.80;99.90;;;;;;5114429;27;20433;-81
2022/08/18 01:03:38;;;;;;;12.55;6.72;;;19.80;99.90;;;;;;5087900;28;20388;-81
2022/08/18 01:06:13;;;;;;;12.63;6.03;;;19.70;99.90;;;;;;5079525;28;20406;-81
2022/08/18 01:08:41;;;;;;;13.30;6.70;;;19.70;99.90;;;;;;5090889;28;20430;-82
2022/08/18 01:11:09;;;;;;;12.57;7.57;;;19.70;99.90;;;;;;5077890;28;20385;-81
2022/08/18 01:13:40;;;;;;;11.68;6.43;;;19.60;99.90;;;;;;5082329;28;20741;-82
2022/08/18 01:21:52;;;;;;;10.70;6.70;;;19.50;99.90;;;;;;5091189;28;20397;-81
2022/08/18 01:27:30;;;;;;;10.57;6.60;;;19.40;99.90;;;;;;5068912;28;20434;-82
2022/08/18 01:30:08;;;;;;;12.93;6.90;;;19.50;99.90;;;;;;5080103;28;20922;-82
2022/08/18 01:32:38;;;;;;;12.55;6.70;;;19.50;99.90;;;;;;5079119;28;20387;-82
2022/08/18 01:35:09;;;;;;;12.02;7.28;;;19.50;99.90;;;;;;5078024;28;20388;-82
2022/08/18 01:37:37;;;;;;;12.60;7.10;;;19.50;99.90;;;;;;5061239;28;20426;-81
2022/08/18 01:40:06;;;;;;;12.32;6.90;;;19.40;99.90;;;;;;5071481;28;20429;-81
2022/08/18 01:42:55;;;;;;;13.55;7.03;;;19.40;99.90;;;;;;5089327;28;20818;-81
2022/08/18 01:45:24;;;;;;;11.10;6.80;;;19.30;99.90;;;;;;5079715;28;20410;-81
2022/08/18 01:47:51;;;;;;;13.27;7.15;;;19.40;99.90;;;;;;5079743;28;20455;-82
2022/08/18 01:50:19;;;;;;;11.20;6.93;;;19.40;99.90;;;;;;5079135;28;20396;-82
2022/08/18 01:52:46;;;;;;;10.70;6.60;;;19.30;99.90;;;;;;5114236;28;20397;-81
2022/08/18 01:55:14;;;;;;;9.32;6.20;;;19.30;99.90;;;;;;5069355;28;20917;-81
2022/08/18 01:57:43;;;;;;;15.55;6.68;;;19.40;99.90;;;;;;5078937;28;20398;-81
2022/08/18 02:00:14;;;;;;;11.20;6.88;;;19.40;99.90;;;;;;5079414;28;20483;-81
2022/08/18 02:02:42;;;;;;;11.57;6.45;;;19.30;99.90;;;;;;5076057;28;20417;-82
2022/08/18 02:05:17;;;;;;;8.95;6.38;;;19.30;99.90;;;;;;5108949;28;20400;-81
2022/08/18 02:07:45;;;;;;;12.80;6.83;;;19.30;99.90;;;;;;5085780;28;20842;-81
2022/08/18 02:10:13;;;;;;;11.02;6.70;;;19.20;99.90;;;;;;5081079;28;20401;-82
2022/08/18 02:12:43;;;;;;;14.70;6.82;;;19.30;99.90;;;;;;5120430;28;20385;-81
2022/08/18 02:15:11;;;;;;;15.68;7.10;;;19.20;99.90;;;;;;5078718;28;20843;-80
2022/08/18 02:17:41;;;;;;;12.50;6.97;;;19.20;99.90;;;;;;5066849;28;20487;-81
2022/08/18 02:20:13;;;;;;;12.80;7.15;;;19.20;99.90;;;;;;5080697;28;20646;-82
2022/08/18 02:22:41;;;;;;;13.50;7.65;;;19.20;99.90;;;;;;5086961;28;20408;-82
2022/08/18 02:25:09;;;;;;;11.73;7.07;;;19.10;99.90;;;;;;5078345;28;20390;-81
2022/08/18 02:27:37;;;;;;;14.75;7.60;;;19.10;99.90;;;;;;5078861;28;20398;-82
2022/08/18 02:30:08;;;;;;;11.18;6.68;;;19.10;99.90;;;;;;5076471;28;20390;-82
2022/08/18 02:32:36;;;;;;;12.37;6.70;;;19.10;99.90;;;;;;5078561;28;20416;-81
2022/08/18 02:35:06;;;;;;;11.93;6.40;;;19.00;99.90;;;;;;5049405;28;20804;-81
2022/08/18 02:37:41;;;;;;;14.88;7.20;;;19.10;99.90;;;;;;5110581;28;20738;-81
2022/08/18 02:40:11;;;;;;;12.85;6.45;;;19.10;99.90;;;;;;5086643;28;20428;-82
2022/08/18 02:42:42;;;;;;;11.47;7.20;;;19.10;99.90;;;;;;5080804;28;20400;-82
2022/08/18 02:45:12;;;;;;;17.35;7.63;;;19.10;99.90;;;;;;5078542;28;20408;-82
2022/08/18 02:47:39;;;;;;;12.65;7.32;;;19.00;99.90;;;;;;5078595;28;20926;-82
2022/08/18 02:50:09;;;;;;;11.05;6.47;;;19.00;99.90;;;;;;5076513;28;20411;-81
2022/08/18 02:52:37;;;;;;;13.40;7.13;;;19.00;99.90;;;;;;5079300;28;20427;-81
2022/08/18 02:55:07;;;;;;;12.75;6.70;;;19.00;99.90;;;;;;5068126;28;20447;-81
2022/08/18 02:57:35;;;;;;;13.10;6.90;;;19.10;99.90;;;;;;5078847;28;20410;-82
2022/08/18 03:00:04;;;;;;;11.87;6.83;;;19.00;99.90;;;;;;5079948;28;20382;-82
2022/08/18 03:02:35;;;;;;;15.50;6.63;;;19.00;99.90;;;;;;5079050;28;20428;-82
2022/08/18 03:05:03;;;;;;;11.35;6.75;;;19.00;99.90;;;;;;5083068;28;20418;-82
2022/08/18 03:07:30;;;;;;;11.37;6.83;;;19.00;99.90;;;;;;5081797;28;20395;-82
2022/08/18 03:09:58;;;;;;;12.38;6.95;;;19.00;99.90;;;;;;5086272;28;20401;-82
2022/08/18 03:12:45;;;;;;;11.02;6.75;;;19.00;99.90;;;;;;5086897;28;20492;-81
2022/08/18 03:15:13;;;;;;;13.70;7.28;;;19.00;99.90;;;;;;5088086;28;20388;-82
2022/08/18 03:17:41;;;;;;;13.65;7.45;;;19.00;99.90;;;;;;5085511;28;20488;-82
2022/08/18 03:20:08;;;;;;;12.17;7.23;;;18.90;99.90;;;;;;5083912;28;20401;-82
2022/08/18 03:22:37;;;;;;;12.93;7.47;;;18.90;99.90;;;;;;5073834;28;20406;-82
2022/08/18 03:25:06;;;;;;;13.52;7.25;;;18.90;99.90;;;;;;5080108;28;20402;-82
2022/08/18 03:27:33;;;;;;;11.63;7.25;;;18.80;99.90;;;;;;5081950;28;20402;-81
2022/08/18 03:30:03;;;;;;;11.30;7.25;;;18.80;99.90;;;;;;5083282;28;20376;-82
2022/08/18 03:32:37;;;;;;;11.13;6.55;;;18.80;99.90;;;;;;5082957;28;20481;-83
2022/08/18 03:35:13;;;;;;;9.82;6.38;;;18.80;99.90;;;;;;5052204;28;20403;-81
2022/08/18 03:37:41;;;;;;;13.23;7.27;;;18.90;99.90;;;;;;5080339;28;20872;-82
2022/08/18 03:40:10;;;;;;;12.63;6.78;;;18.80;99.90;;;;;;5084040;28;20671;-82
2022/08/18 03:42:37;;;;;;;13.80;7.17;;;18.80;99.90;;;;;;5083301;28;20414;-82
2022/08/18 03:45:06;;;;;;;12.23;7.00;;;18.80;99.90;;;;;;5115620;27;20401;-82
2022/08/18 03:47:44;;;;;;;13.48;6.65;;;18.80;99.90;;;;;;5083086;28;20397;-81
2022/08/18 03:50:12;;;;;;;12.75;6.65;;;18.90;99.90;;;;;;5115418;27;20396;-82
2022/08/18 03:52:40;;;;;;;11.98;7.13;;;18.90;99.90;;;;;;5109389;27;20435;-82
2022/08/18 03:55:08;;;;;;;12.68;7.20;;;18.90;99.90;;;;;;5080789;28;20806;-82
2022/08/18 03:57:36;;;;;;;11.77;7.35;;;18.90;99.90;;;;;;5082203;28;20404;-81
2022/08/18 04:00:07;;;;;;;12.25;7.60;;;18.90;99.90;;;;;;5082391;28;21105;-82
2022/08/18 04:02:35;;;;;;;11.33;6.80;;;18.80;99.90;;;;;;5085031;28;20403;-82
2022/08/18 04:05:03;;;;;;;11.43;7.10;;;18.80;99.90;;;;;;5072747;28;20401;-83
2022/08/18 04:07:32;;;;;;;10.65;7.35;;;18.80;99.90;;;;;;5114333;27;20414;-81
2022/08/18 04:09:59;;;;;;;11.00;6.43;;;18.80;99.90;;;;;;5079441;28;21080;-82
2022/08/18 04:12:27;;;;;;;11.13;7.57;;;18.80;99.90;;;;;;5082708;28;20404;-82
2022/08/18 04:14:54;;;;;;;10.73;7.07;;;18.80;99.90;;;;;;5075358;28;20415;-82
2022/08/18 04:17:23;;;;;;;11.75;7.28;;;18.80;99.90;;;;;;5079340;28;20398;-82
2022/08/18 04:19:52;;;;;;;13.07;8.10;;;18.90;99.90;;;;;;5074027;28;20942;-82
2022/08/18 04:22:22;;;;;;;11.05;7.47;;;18.90;99.90;;;;;;5103552;28;20424;-82
2022/08/18 04:24:50;;;;;;;15.00;7.43;;;18.90;99.90;;;;;;5072226;28;20481;-82
2022/08/18 04:27:19;;;;;;;11.15;6.47;;;19.00;99.90;;;;;;5082037;28;20393;-82
2022/08/18 04:29:47;;;;;;;12.63;7.37;;;19.00;99.90;;;;;;5084209;28;20443;-81
2022/08/18 04:32:15;;;;;;;13.38;7.47;;;19.00;99.90;;;;;;5082707;28;20399;-82
2022/08/18 04:34:43;;;;;;;12.70;7.83;;;19.00;99.90;;;;;;5077414;28;20904;-82
2022/08/18 04:37:10;;;;;;;12.57;7.43;;;19.00;99.90;;;;;;5113283;27;20402;-81
2022/08/18 04:39:38;;;;;;;14.47;7.70;;;19.00;99.90;;;;;;5083535;28;20462;-82
2022/08/18 04:42:06;;;;;;;11.93;7.20;;;19.00;99.90;;;;;;5078529;28;20407;-82
2022/08/18 04:44:36;;;;;;;12.83;7.30;;;19.10;99.90;;;;;;5073346;28;20500;-81
2022/08/18 04:47:06;;;;;;;11.63;7.40;;;19.10;99.90;;;;;;5116156;27;20436;-81
2022/08/18 04:49:35;;;;;;;12.25;7.45;;;19.10;99.90;;;;;;5072544;28;20406;-81
2022/08/18 04:55:09;;;;;;;16.23;8.17;;;19.10;99.90;;;;;;5079330;28;20398;-82
2022/08/18 04:57:36;;;;;;;12.93;8.27;;;19.10;99.90;;;;;;5077243;28;20788;-82
2022/08/18 05:00:06;;;;;;;12.82;8.80;;;19.10;99.90;;;;;;5085882;28;20398;-81
2022/08/18 05:02:33;;;;;;;11.83;8.27;;;19.20;99.90;;;;;;5085519;28;20396;-82
2022/08/18 05:05:02;;;;;;;13.85;9.25;;;19.20;99.90;;;;;;5082147;28;20396;-81
2022/08/18 05:07:30;;;;;;;16.35;9.05;;;19.20;99.90;;;;;;5077576;28;20419;-82
2022/08/18 05:09:58;;;;;;;15.60;9.48;;;19.20;99.90;;;;;;5080806;28;20824;-81
2022/08/18 05:12:25;;;;;;;14.67;9.33;;;19.20;99.90;;;;;;5082616;28;20419;-81
2022/08/18 05:14:55;;;;;;;15.57;9.90;;;19.30;99.90;;;;;;5083035;28;20388;-82
2022/08/18 05:17:27;;;;;;;15.40;9.60;;;19.40;99.90;;;;;;5084259;28;20404;-82
2022/08/18 05:19:58;;;;;;;12.95;8.75;;;19.40;99.90;;;;;;5072884;28;20393;-82
2022/08/18 05:22:29;;;;;;;12.90;9.18;;;19.40;99.90;;;;;;5085365;28;20409;-82
2022/08/18 05:24:58;;;;;;;12.55;8.98;;;19.50;99.90;;;;;;5080677;28;20400;-82
2022/08/18 05:27:34;;;;;;;15.05;9.25;;;19.50;99.90;;;;;;5073333;28;20443;-83
2022/08/18 05:30:04;;;;;;;11.70;8.05;;;19.50;99.90;;;;;;5076361;28;20400;-82
2022/08/18 05:32:45;;;;;;;16.00;10.23;;;19.60;99.90;;;;;;5080512;28;20400;-83
2022/08/18 05:35:29;;;;;;;15.13;10.27;;;19.60;99.90;;;;;;5081211;28;20404;-82
2022/08/18 05:38:22;;;;;;;17.25;10.77;;;19.70;99.90;;;;;;5086849;28;20384;-82
2022/08/18 05:41:24;;;;;;;20.35;11.73;;;19.80;99.90;;;;;;5115715;27;20390;-82
2022/08/18 05:43:52;;;;;;;16.35;10.23;;;19.90;99.90;;;;;;5079390;28;20385;-82
2022/08/18 05:46:33;;;;;;;16.73;10.77;;;19.90;99.90;;;;;;5079177;28;20510;-83
2022/08/18 05:49:01;;;;;;;16.67;10.13;;;20.00;99.90;;;;;;5077670;28;20387;-82
2022/08/18 05:51:37;;;;;;;16.33;10.25;;;20.00;99.90;;;;;;5081399;28;20377;-82
2022/08/18 05:56:55;;;;;;;16.65;10.50;;;20.20;99.90;;;;;;5076354;28;20439;-82
2022/08/18 05:59:27;;;;;;;19.20;11.35;;;20.20;99.90;;;;;;5085541;28;20481;-82
2022/08/18 06:02:18;;;;;;;19.05;11.50;;;20.20;99.90;;;;;;5079964;28;20401;-82
2022/08/18 06:04:59;;;;;;;14.38;10.07;;;20.30;99.90;;;;;;5075916;28;20431;-81
2022/08/18 06:07:37;;;;;;;16.13;11.05;;;20.30;99.90;;;;;;5078628;28;20422;-82
2022/08/18 06:10:07;;;;;;;17.73;10.57;;;20.30;99.90;;;;;;5075392;28;20455;-81
2022/08/18 06:12:41;;;;;;;15.63;9.95;;;20.40;99.90;;;;;;5081562;28;20453;-82
2022/08/18 06:15:30;;;;;;;15.85;10.57;;;20.40;99.90;;;;;;5093404;28;20396;-82
2022/08/18 06:18:17;;;;;;;17.77;11.07;;;20.50;99.90;;;;;;5080857;28;20419;-81
2022/08/18 06:21:10;;;;;;;17.73;11.07;;;20.50;99.90;;;;;;5076305;28;20882;-81
2022/08/18 06:23:38;;;;;;;16.30;10.50;;;20.60;99.90;;;;;;5108316;28;20446;-82
2022/08/18 06:26:24;;;;;;;16.23;10.35;;;20.60;99.90;;;;;;5073770;28;20439;-82
2022/08/18 06:28:54;;;;;;;20.07;11.70;;;20.60;99.90;;;;;;5089131;28;20414;-82
2022/08/18 06:31:44;;;;;;;16.20;10.90;;;20.70;99.90;;;;;;5073011;28;20469;-82
2022/08/18 06:34:25;;;;;;;14.00;9.85;;;20.80;99.90;;;;;;5076157;28;20403;-82
2022/08/18 06:36:53;;;;;;;17.65;10.40;;;20.90;99.90;;;;;;5081698;28;20404;-82
2022/08/18 06:39:46;;;;;;;18.27;10.65;;;20.90;99.90;;;;;;5087274;28;20449;-82
2022/08/18 06:42:25;;;;;;;15.48;10.00;;;21.00;99.90;;;;;;5062788;28;20404;-82
2022/08/18 06:45:01;;;;;;;16.83;11.00;;;21.00;99.90;;;;;;5084130;28;20407;-82
2022/08/18 06:48:04;;;;;;;16.40;10.32;;;21.10;99.90;;;;;;5082829;28;20412;-82
2022/08/18 06:50:52;;;;;;;16.25;10.20;;;21.20;99.90;;;;;;5073484;28;20410;-83
2022/08/18 06:53:20;;;;;;;17.60;10.27;;;21.20;99.90;;;;;;5084424;28;20405;-82
2022/08/18 06:55:54;;;;;;;15.68;10.15;;;21.40;99.90;;;;;;5088218;28;20461;-82
2022/08/18 06:58:29;;;;;;;17.13;11.10;;;21.40;99.90;;;;;;5092546;28;20392;-82
2022/08/18 07:01:04;;;;;;;29.75;11.20;;;21.40;99.90;;;;;;5085351;28;20816;-82
2022/08/18 07:03:38;;;;;;;17.92;9.40;;;21.50;99.90;;;;;;5080019;28;20444;-81
2022/08/18 07:06:26;;;;;;;17.77;10.10;;;21.60;99.90;;;;;;5086275;28;20493;-80
2022/08/18 07:09:15;;;;;;;24.05;10.10;;;21.70;99.90;;;;;;5073265;28;20439;-81
2022/08/18 07:12:05;;;;;;;17.90;9.95;;;21.80;99.90;;;;;;5085278;28;20385;-81
2022/08/18 07:14:46;;;;;;;16.65;10.48;;;21.90;99.90;;;;;;5083209;28;20398;-82
2022/08/18 07:17:29;;;;;;;18.02;9.38;;;22.00;99.90;;;;;;5070425;28;20400;-81
2022/08/18 07:20:13;;;;;;;14.57;9.55;;;22.20;99.90;;;;;;5075771;28;20934;-81
2022/08/18 07:23:07;;;;;;;17.07;9.97;;;22.20;99.90;;;;;;5088195;28;20802;-82
2022/08/18 07:25:41;;;;;;;16.50;9.88;;;22.40;99.90;;;;;;5077930;28;20880;-82
2022/08/18 07:28:39;;;;;;;14.82;9.05;;;22.50;99.90;;;;;;5079008;28;20898;-82
2022/08/18 07:31:27;;;;;;;18.65;9.75;;;22.60;99.90;;;;;;5081628;28;20419;-82
2022/08/18 07:34:18;;;;;;;16.75;9.75;;;22.60;99.90;;;;;;5065340;28;20402;-82
2022/08/18 07:36:54;;;;;;;13.88;9.30;;;22.70;99.90;;;;;;5062029;28;20402;-81
2022/08/18 07:39:28;;;;;;;15.48;9.65;;;22.70;99.90;;;;;;5081263;28;20408;-81
2022/08/18 07:42:16;;;;;;;15.45;9.82;;;22.80;99.90;;;;;;5081323;28;20400;-82
2022/08/18 07:45:30;;;;;;;19.27;10.13;;;22.80;99.90;;;;;;5090230;28;20889;-81
2022/08/18 07:48:17;;;;;;;18.60;9.63;;;22.90;99.90;;;;;;5059912;28;20396;-80
2022/08/18 07:51:19;;;;;;;13.18;10.30;;;23.00;99.90;;;;;;5065305;28;20405;-81
2022/08/18 07:54:10;;;;;;;16.25;9.73;;;23.00;99.90;;;;;;5081463;28;20409;-81
2022/08/18 07:57:32;;;;;;;15.32;9.32;;;22.90;99.90;;;;;;5074809;28;20538;-82
2022/08/18 08:00:28;;;;;;;16.80;9.63;;;23.20;99.90;;;;;;5070454;28;20405;-81
2022/08/18 08:03:45;;;;;;;18.38;9.82;;;23.30;99.90;;;;;;5072794;28;20409;-81
2022/08/18 08:06:24;;;;;;;16.40;9.90;;;23.40;99.90;;;;;;5075435;28;20421;-82
2022/08/18 08:09:24;;;;;;;14.23;9.25;;;23.50;99.90;;;;;;5057764;28;20418;-81
2022/08/18 08:12:20;;;;;;;16.45;10.50;;;23.50;99.90;;;;;;5091272;28;20392;-79
2022/08/18 08:14:53;;;;;;;16.37;9.87;;;23.60;99.90;;;;;;5080396;28;20405;-81
2022/08/18 08:17:29;;;;;;;19.77;9.57;;;23.70;99.90;;;;;;5081571;28;20406;-81
2022/08/18 08:20:14;;;;;;;15.57;9.10;;;23.80;99.90;;;;;;5073979;28;20398;-82
2022/08/18 08:23:16;;;;;;;17.83;9.60;;;23.80;99.90;;;;;;5062525;28;20404;-81
2022/08/18 08:26:25;;;;;;;15.60;9.18;;;23.90;99.90;;;;;;5043015;28;20403;-81
2022/08/18 08:29:09;;;;;;;16.70;9.50;;;23.90;99.90;;;;;;5088261;28;20400;-82
2022/08/18 08:31:56;;;;;;;17.55;9.43;;;24.00;99.90;;;;;;5075899;28;20908;-81
2022/08/18 08:34:49;;;;;;;13.23;9.43;;;24.00;99.90;;;;;;5073648;28;20901;-80
2022/08/18 08:37:29;;;;;;;18.10;9.60;;;24.00;99.90;;;;;;5080905;28;20390;-82
2022/08/18 08:40:19;;;;;;;15.65;9.65;;;24.10;99.90;;;;;;5082080;28;20492;-81
2022/08/18 08:42:59;;;;;;;18.33;10.68;;;24.20;99.90;;;;;;5079575;28;20421;-81
2022/08/18 08:45:38;;;;;;;15.95;9.55;;;24.10;99.90;;;;;;5114704;27;20406;-80
2022/08/18 08:48:13;;;;;;;17.80;9.52;;;24.20;99.90;;;;;;5081900;28;20393;-80
2022/08/18 08:50:51;;;;;;;15.90;9.40;;;24.40;99.90;;;;;;5080655;28;20398;-79
2022/08/18 08:53:51;;;;;;;18.20;9.23;;;24.50;99.90;;;;;;5076025;28;20406;-81
2022/08/18 08:56:28;;;;;;;17.90;8.93;;;24.60;99.90;;;;;;5081019;28;20404;-80
2022/08/18 08:59:06;;;;;;;13.93;8.77;;;24.60;99.90;;;;;;5087899;28;20467;-79
2022/08/18 09:02:04;;;;;;;15.85;8.18;;;24.60;99.90;;;;;;5079872;28;20396;-80
2022/08/18 09:04:54;;;;;;;17.27;8.57;;;24.60;99.90;;;;;;5079484;28;20407;-80
2022/08/18 09:07:47;;;;;;;16.52;8.60;;;24.60;99.90;;;;;;5076333;28;20513;-80
2022/08/18 09:10:48;;;;;;;14.48;8.48;;;24.80;99.90;;;;;;5083543;28;20404;-80
2022/08/18 09:13:35;;;;;;;16.42;8.73;;;24.80;99.90;;;;;;5059416;28;20772;-80
2022/08/18 09:16:26;;;;;;;16.20;8.23;;;24.90;99.90;;;;;;5070717;28;20398;-81
2022/08/18 09:19:36;;;;;;;15.95;8.02;;;25.00;99.90;;;;;;5071564;28;20396;-80
2022/08/18 09:22:39;;;;;;;15.40;8.80;;;25.00;99.90;;;;;;5081924;28;20902;-80
2022/08/18 09:25:42;;;;;;;20.35;8.48;;;25.00;99.90;;;;;;5080474;28;20406;-81
2022/08/18 09:28:57;;;;;;;17.95;9.02;;;25.00;99.90;;;;;;5073671;28;20427;-80
2022/08/18 09:31:28;;;;;;;18.85;9.15;;;25.10;99.90;;;;;;5080516;28;21358;-80
2022/08/18 09:34:33;;;;;;;15.40;8.43;;;25.20;99.90;;;;;;5083270;28;20396;-81
2022/08/18 09:37:26;;;;;;;16.47;8.50;;;25.30;99.90;;;;;;5084919;28;20462;-80
2022/08/18 09:43:53;;;;;;;18.52;9.50;;;25.30;99.90;;;;;;5081745;28;20487;-80
2022/08/18 09:46:42;;;;;;;16.70;9.32;;;25.50;99.90;;;;;;5076412;28;20397;-81
2022/08/18 09:49:22;;;;;;;19.65;9.77;;;25.40;99.90;;;;;;5076190;28;20398;-81
2022/08/18 09:52:26;;;;;;;17.23;9.60;;;25.50;99.90;;;;;;5068185;28;20424;-80
2022/08/18 09:55:04;;;;;;;18.80;9.07;;;25.60;99.90;;;;;;5075480;28;20453;-80
2022/08/18 09:57:35;;;;;;;15.13;9.52;;;25.70;99.90;;;;;;5075720;28;20393;-80
2022/08/18 10:00:29;;;;;;;17.65;9.40;;;25.70;99.90;;;;;;5099564;28;20728;-80
2022/08/18 10:03:09;;;;;;;15.52;10.00;;;25.80;99.90;;;;;;5078228;28;20483;-80
2022/08/18 10:05:38;;;;;;;15.20;9.40;;;25.80;99.90;;;;;;5079636;28;20597;-80
2022/08/18 10:08:05;;;;;;;15.83;8.80;;;25.90;99.90;;;;;;5081604;28;20897;-81
2022/08/18 10:11:15;;;;;;;12.32;8.70;;;26.10;99.90;;;;;;5068166;28;20448;-80
2022/08/18 10:13:58;;;;;;;14.30;9.63;;;26.00;99.90;;;;;;5070982;28;20485;-81
2022/08/18 10:17:02;;;;;;;19.03;9.80;;;26.10;99.90;;;;;;5074349;28;20406;-80
2022/08/18 10:19:55;;;;;;;18.55;9.98;;;26.20;99.90;;;;;;5066120;28;20400;-80
2022/08/18 10:22:42;;;;;;;17.77;9.63;;;26.20;99.90;;;;;;5073969;28;20404;-81
2022/08/18 10:25:13;;;;;;;16.15;8.48;;;26.20;99.90;;;;;;5080526;28;20393;-80
2022/08/18 10:27:55;;;;;;;17.05;9.30;;;26.40;99.90;;;;;;5082076;28;20979;-79
2022/08/18 10:30:45;;;;;;;18.27;9.80;;;26.40;99.90;;;;;;5082482;28;20485;-81
2022/08/18 10:34:12;;;;;;;14.00;9.45;;;26.60;99.90;;;;;;5078950;28;20464;-80
2022/08/18 10:36:48;;;;;;;13.77;9.30;;;26.50;99.90;;;;;;5073828;28;20610;-80
2022/08/18 10:39:45;;;;;;;13.73;9.80;;;26.60;99.90;;;;;;5089254;28;20536;-79
2022/08/18 10:42:22;;;;;;;15.80;10.43;;;26.50;99.90;;;;;;5078965;28;20486;-80
2022/08/18 10:45:05;;;;;;;16.98;11.00;;;26.60;99.90;;;;;;5105617;27;20460;-81
2022/08/18 10:47:33;;;;;;;14.77;11.35;;;26.60;99.90;;;;;;5073305;28;20430;-80
2022/08/18 10:50:18;;;;;;;15.60;11.80;;;26.80;99.90;;;;;;5078609;28;20768;-80
2022/08/18 10:53:00;;;;;;;15.27;11.63;;;26.70;99.90;;;;;;5075373;28;20406;-81
2022/08/18 10:55:55;;;;;;;17.75;11.90;;;26.80;99.90;;;;;;5077905;28;20481;-80
2022/08/18 10:58:39;;;;;;;15.38;12.30;;;26.90;99.90;;;;;;5074924;28;20412;-78
2022/08/18 11:01:19;;;;;;;22.98;12.85;;;26.90;99.90;;;;;;5081785;28;20934;-80
2022/08/18 11:04:12;;;;;;;18.10;12.55;;;27.00;99.90;;;;;;5081705;28;20892;-80
2022/08/18 11:07:10;;;;;;;17.83;12.93;;;27.00;99.90;;;;;;5078682;28;20870;-80
2022/08/18 11:09:40;;;;;;;18.02;12.02;;;27.10;99.90;;;;;;5084402;28;20408;-81
2022/08/18 11:12:43;;;;;;;19.45;13.02;;;27.00;99.90;;;;;;5088868;28;20385;-81
2022/08/18 11:15:25;;;;;;;17.65;12.13;;;27.10;99.90;;;;;;5082958;28;20402;-80
2022/08/18 11:18:32;;;;;;;15.88;11.93;;;27.20;99.90;;;;;;5080551;28;20385;-80
2022/08/18 11:21:34;;;;;;;18.33;11.32;;;27.30;99.90;;;;;;5081706;28;20390;-80
2022/08/18 11:24:14;;;;;;;20.63;12.18;;;27.50;99.90;;;;;;5079502;28;20401;-81
2022/08/18 11:26:58;;;;;;;17.77;12.15;;;27.50;99.90;;;;;;5081137;28;20409;-78
2022/08/18 11:29:35;;;;;;;16.98;11.93;;;27.60;99.90;;;;;;5081473;28;20434;-80
2022/08/18 11:32:19;;;;;;;19.27;12.40;;;27.60;99.90;;;;;;5081175;28;20420;-81
2022/08/18 11:35:11;;;;;;;20.33;12.13;;;27.60;99.90;;;;;;5080590;28;20884;-80
2022/08/18 11:37:40;;;;;;;17.15;11.68;;;27.70;99.90;;;;;;5082254;28;20384;-77
2022/08/18 11:40:33;;;;;;;18.50;12.93;;;27.70;99.90;;;;;;5082179;28;20405;-80
2022/08/18 11:43:26;;;;;;;14.73;11.70;;;27.70;99.90;;;;;;5079335;28;20489;-81
2022/08/18 11:46:26;;;;;;;15.18;11.77;;;27.80;99.90;;;;;;5081560;28;20378;-81
2022/08/18 11:49:31;;;;;;;20.13;12.13;;;28.00;99.90;;;;;;5090018;28;20393;-80
2022/08/18 11:52:14;;;;;;;18.25;11.98;;;28.00;99.90;;;;;;5078601;28;20376;-80
2022/08/18 11:55:05;;;;;;;17.92;11.95;;;28.00;99.90;;;;;;5079856;28;20931;-80
2022/08/18 11:57:55;;;;;;;15.50;11.85;;;28.10;99.90;;;;;;5081407;28;20395;-80
2022/08/18 12:00:45;;;;;;;17.10;11.57;;;28.10;99.90;;;;;;5078754;28;20433;-80
2022/08/18 12:03:37;;;;;;;14.38;11.57;;;28.20;99.90;;;;;;5074542;28;20400;-80
2022/08/18 12:06:21;;;;;;;17.13;11.43;;;28.20;99.90;;;;;;5074387;28;20394;-80
2022/08/18 12:09:18;;;;;;;17.77;11.60;;;28.30;99.90;;;;;;5058327;28;20441;-79
2022/08/18 12:12:29;;;;;;;16.23;11.70;;;28.30;99.90;;;;;;5079172;28;20487;-81
2022/08/18 12:15:03;;;;;;;19.97;11.73;;;28.40;99.90;;;;;;5113173;27;20924;-81
2022/08/18 12:17:44;;;;;;;17.10;11.25;;;28.50;99.90;;;;;;5083569;28;20450;-81
2022/08/18 12:20:20;;;;;;;18.75;11.85;;;28.50;99.90;;;;;;5082827;28;20488;-80
2022/08/18 12:22:49;;;;;;;13.75;10.73;;;28.50;99.90;;;;;;5077998;28;20396;-79
2022/08/18 12:25:19;;;;;;;18.00;11.48;;;28.60;99.90;;;;;;5079775;28;20406;-80
2022/08/18 12:27:54;;;;;;;17.60;11.65;;;28.70;99.90;;;;;;5112779;27;20820;-79
2022/08/18 12:30:21;;;;;;;17.50;12.43;;;28.70;99.90;;;;;;5078074;28;20899;-80
2022/08/18 12:32:50;;;;;;;16.02;11.38;;;28.70;99.90;;;;;;5082441;28;20380;-80
2022/08/18 12:35:33;;;;;;;16.23;10.70;;;28.70;99.90;;;;;;5080884;28;20383;-79
2022/08/18 12:38:01;;;;;;;15.27;10.75;;;28.80;99.90;;;;;;5079815;28;20384;-80
2022/08/18 12:40:42;;;;;;;15.57;10.00;;;28.70;99.90;;;;;;5080071;28;20398;-76
2022/08/18 12:43:10;;;;;;;20.10;10.68;;;28.80;99.90;;;;;;5079843;28;20413;-80
2022/08/18 12:45:40;;;;;;;15.40;9.90;;;28.80;99.90;;;;;;5078056;28;20398;-80
2022/08/18 12:48:08;;;;;;;14.83;10.40;;;28.70;99.90;;;;;;5077445;28;20417;-79
2022/08/18 12:50:38;;;;;;;17.20;10.57;;;28.90;99.90;;;;;;5090033;28;20376;-80
2022/08/18 12:53:22;;;;;;;20.15;10.15;;;28.90;99.90;;;;;;5080030;28;20730;-80
2022/08/18 12:56:07;;;;;;;15.80;10.80;;;29.00;99.90;;;;;;5076283;28;20390;-79
2022/08/18 12:58:38;;;;;;;15.43;10.63;;;29.20;99.90;;;;;;5075559;28;21013;-79
2022/08/18 13:01:06;;;;;;;21.65;10.75;;;29.20;99.90;;;;;;5073321;28;20409;-80
2022/08/18 13:03:34;;;;;;;18.08;10.90;;;29.20;99.90;;;;;;5070840;28;20768;-79
2022/08/18 13:06:03;;;;;;;15.23;10.65;;;29.30;99.90;;;;;;5080979;28;20408;-79
2022/08/18 13:08:32;;;;;;;17.43;10.47;;;29.20;99.90;;;;;;5083830;28;20414;-79
2022/08/18 13:11:16;;;;;;;16.70;10.10;;;29.20;99.90;;;;;;5082468;28;20452;-80
2022/08/18 13:13:52;;;;;;;13.27;9.95;;;29.20;99.90;;;;;;5084413;28;20401;-80
2022/08/18 13:16:25;;;;;;;17.17;9.82;;;29.30;99.90;;;;;;5082302;28;20761;-80
2022/08/18 13:19:05;;;;;;;16.42;9.90;;;29.40;99.90;;;;;;5065124;28;20394;-80
2022/08/18 13:21:33;;;;;;;20.60;10.00;;;29.40;99.90;;;;;;5088647;28;20389;-80
2022/08/18 13:24:08;;;;;;;15.85;10.27;;;29.40;99.90;;;;;;5115862;27;20396;-80
2022/08/18 13:26:42;;;;;;;14.43;10.50;;;29.20;99.90;;;;;;5099084;27;20443;-80
2022/08/18 13:29:16;;;;;;;15.23;9.85;;;29.30;99.90;;;;;;5076921;28;20429;-80
2022/08/18 13:31:45;;;;;;;17.13;10.70;;;29.40;99.90;;;;;;5072815;28;20993;-80
2022/08/18 13:34:27;;;;;;;14.93;10.77;;;29.60;99.90;;;;;;5076219;28;20403;-79
2022/08/18 13:36:56;;;;;;;22.02;10.68;;;29.60;99.90;;;;;;5110158;27;20500;-80
2022/08/18 13:39:27;;;;;;;20.52;11.20;;;29.70;99.90;;;;;;5077617;28;20396;-80
2022/08/18 13:42:01;;;;;;;15.75;10.82;;;29.60;99.90;;;;;;5069785;28;20404;-79
2022/08/18 13:44:49;;;;;;;24.00;11.10;;;29.70;99.90;;;;;;5071006;28;20415;-79
2022/08/18 13:47:21;;;;;;;15.88;10.57;;;29.80;99.90;;;;;;5080189;28;20481;-80
2022/08/18 13:49:50;;;;;;;17.08;10.85;;;29.70;99.90;;;;;;5078849;28;20405;-79